sensor_id;sensor_type;location;lat;lon;timestamp;P1;durP1;ratioP1;P2;durP2;ratioP2
24650;SDS011;12783;48.824;8.662;2023-06-22T00:00:02;8.95;;;5.80;;
24650;SDS011;12783;48.824;8.662;2023-06-22T00:02:34;8.05;;;5.28;;
24650;SDS011;12783;48.824;8.662;2023-06-22T00:05:01;8.40;;;5.65;;
24650;SDS011;12783;48.824;8.662;2023-06-22T00:07:28;8.85;;;5.72;;
24650;SDS011;12783;48.824;8.662;2023-06-22T00:09:56;6.63;;;5.25;;
24650;SDS011;12783;48.824;8.662;2023-06-22T00:12:23;9.18;;;5.35;;
24650;SDS011;12783;48.824;8.662;2023-06-22T00:14:49;9.10;;;5.40;;
24650;SDS011;12783;48.824;8.662;2023-06-22T00:17:17;9.90;;;5.72;;
24650;SDS011;12783;48.824;8.662;2023-06-22T00:19:46;10.90;;;5.90;;
24650;SDS011;12783;48.824;8.662;2023-06-22T00:22:14;9.68;;;5.72;;
24650;SDS011;12783;48.824;8.662;2023-06-22T00:24:43;7.70;;;5.50;;
24650;SDS011;12783;48.824;8.662;2023-06-22T00:27:10;7.70;;;5.38;;
24650;SDS011;12783;48.824;8.662;2023-06-22T00:29:36;9.38;;;5.70;;
24650;SDS011;12783;48.824;8.662;2023-06-22T00:32:04;9.10;;;5.43;;
24650;SDS011;12783;48.824;8.662;2023-06-22T00:34:31;6.15;;;4.93;;
24650;SDS011;12783;48.824;8.662;2023-06-22T00:36:58;8.25;;;5.30;;
24650;SDS011;12783;48.824;8.662;2023-06-22T00:39:25;8.60;;;5.20;;
24650;SDS011;12783;48.824;8.662;2023-06-22T00:41:52;10.15;;;5.38;;
24650;SDS011;12783;48.824;8.662;2023-06-22T00:44:19;8.68;;;5.30;;
24650;SDS011;12783;48.824;8.662;2023-06-22T00:46:46;6.53;;;4.95;;
24650;SDS011;12783;48.824;8.662;2023-06-22T00:49:13;8.90;;;5.15;;
24650;SDS011;12783;48.824;8.662;2023-06-22T00:51:40;8.00;;;5.07;;
24650;SDS011;12783;48.824;8.662;2023-06-22T00:54:12;10.30;;;5.68;;
24650;SDS011;12783;48.824;8.662;2023-06-22T00:56:42;10.98;;;5.65;;
24650;SDS011;12783;48.824;8.662;2023-06-22T00:59:10;8.82;;;5.43;;
24650;SDS011;12783;48.824;8.662;2023-06-22T01:01:38;9.10;;;5.70;;
24650;SDS011;12783;48.824;8.662;2023-06-22T01:04:07;9.85;;;5.50;;
24650;SDS011;12783;48.824;8.662;2023-06-22T01:06:35;8.48;;;5.40;;
24650;SDS011;12783;48.824;8.662;2023-06-22T01:09:19;9.77;;;5.30;;
24650;SDS011;12783;48.824;8.662;2023-06-22T01:11:55;6.72;;;5.07;;
24650;SDS011;12783;48.824;8.662;2023-06-22T01:14:28;11.18;;;5.25;;
24650;SDS011;12783;48.824;8.662;2023-06-22T01:17:08;9.73;;;5.20;;
24650;SDS011;12783;48.824;8.662;2023-06-22T01:19:46;6.75;;;4.95;;
24650;SDS011;12783;48.824;8.662;2023-06-22T01:22:18;6.82;;;5.47;;
24650;SDS011;12783;48.824;8.662;2023-06-22T01:25:12;8.50;;;5.47;;
24650;SDS011;12783;48.824;8.662;2023-06-22T01:30:27;13.40;;;6.05;;
24650;SDS011;12783;48.824;8.662;2023-06-22T01:32:58;8.15;;;5.70;;
24650;SDS011;12783;48.824;8.662;2023-06-22T01:35:28;10.75;;;5.97;;
24650;SDS011;12783;48.824;8.662;2023-06-22T01:37:55;11.25;;;5.97;;
24650;SDS011;12783;48.824;8.662;2023-06-22T01:40:22;10.00;;;5.32;;
24650;SDS011;12783;48.824;8.662;2023-06-22T01:42:51;10.10;;;5.47;;
24650;SDS011;12783;48.824;8.662;2023-06-22T01:45:18;8.52;;;6.10;;
24650;SDS011;12783;48.824;8.662;2023-06-22T01:47:46;9.00;;;5.82;;
24650;SDS011;12783;48.824;8.662;2023-06-22T01:50:14;9.25;;;6.38;;
24650;SDS011;12783;48.824;8.662;2023-06-22T01:52:41;10.68;;;6.03;;
24650;SDS011;12783;48.824;8.662;2023-06-22T01:55:08;10.55;;;6.40;;
24650;SDS011;12783;48.824;8.662;2023-06-22T01:57:35;11.10;;;6.20;;
24650;SDS011;12783;48.824;8.662;2023-06-22T02:00:04;9.48;;;6.35;;
24650;SDS011;12783;48.824;8.662;2023-06-22T02:02:56;10.88;;;6.53;;
24650;SDS011;12783;48.824;8.662;2023-06-22T02:05:55;12.55;;;6.50;;
24650;SDS011;12783;48.824;8.662;2023-06-22T02:08:30;12.60;;;6.75;;
24650;SDS011;12783;48.824;8.662;2023-06-22T02:11:09;9.90;;;6.28;;
24650;SDS011;12783;48.824;8.662;2023-06-22T02:13:38;12.77;;;6.30;;
24650;SDS011;12783;48.824;8.662;2023-06-22T02:16:12;10.80;;;6.85;;
24650;SDS011;12783;48.824;8.662;2023-06-22T02:18:47;9.45;;;6.38;;
24650;SDS011;12783;48.824;8.662;2023-06-22T02:21:18;9.20;;;6.30;;
24650;SDS011;12783;48.824;8.662;2023-06-22T02:23:46;8.50;;;6.50;;
24650;SDS011;12783;48.824;8.662;2023-06-22T02:26:15;14.02;;;7.07;;
24650;SDS011;12783;48.824;8.662;2023-06-22T02:28:44;9.77;;;6.90;;
24650;SDS011;12783;48.824;8.662;2023-06-22T02:31:12;11.90;;;6.28;;
24650;SDS011;12783;48.824;8.662;2023-06-22T02:33:39;10.43;;;6.63;;
24650;SDS011;12783;48.824;8.662;2023-06-22T02:36:06;10.45;;;6.40;;
24650;SDS011;12783;48.824;8.662;2023-06-22T02:38:35;10.80;;;6.85;;
24650;SDS011;12783;48.824;8.662;2023-06-22T02:41:02;9.00;;;6.90;;
24650;SDS011;12783;48.824;8.662;2023-06-22T02:43:29;11.75;;;6.90;;
24650;SDS011;12783;48.824;8.662;2023-06-22T02:45:56;8.93;;;6.72;;
24650;SDS011;12783;48.824;8.662;2023-06-22T02:48:23;8.40;;;6.40;;
24650;SDS011;12783;48.824;8.662;2023-06-22T02:50:51;10.23;;;6.30;;
24650;SDS011;12783;48.824;8.662;2023-06-22T02:53:18;9.90;;;6.45;;
24650;SDS011;12783;48.824;8.662;2023-06-22T02:55:45;9.82;;;6.90;;
24650;SDS011;12783;48.824;8.662;2023-06-22T02:58:12;11.52;;;7.00;;
24650;SDS011;12783;48.824;8.662;2023-06-22T03:00:39;10.05;;;7.10;;
24650;SDS011;12783;48.824;8.662;2023-06-22T03:03:06;9.95;;;7.18;;
24650;SDS011;12783;48.824;8.662;2023-06-22T03:05:33;12.73;;;7.57;;
24650;SDS011;12783;48.824;8.662;2023-06-22T03:08:01;16.38;;;7.90;;
24650;SDS011;12783;48.824;8.662;2023-06-22T03:10:28;12.98;;;7.30;;
24650;SDS011;12783;48.824;8.662;2023-06-22T03:12:55;11.80;;;7.82;;
24650;SDS011;12783;48.824;8.662;2023-06-22T03:15:22;10.00;;;7.18;;
24650;SDS011;12783;48.824;8.662;2023-06-22T03:17:49;12.52;;;7.68;;
24650;SDS011;12783;48.824;8.662;2023-06-22T03:20:16;10.70;;;7.60;;
24650;SDS011;12783;48.824;8.662;2023-06-22T03:22:43;13.30;;;9.02;;
24650;SDS011;12783;48.824;8.662;2023-06-22T03:25:10;11.77;;;7.95;;
24650;SDS011;12783;48.824;8.662;2023-06-22T03:27:39;13.63;;;8.45;;
24650;SDS011;12783;48.824;8.662;2023-06-22T03:30:08;15.00;;;8.10;;
24650;SDS011;12783;48.824;8.662;2023-06-22T03:32:36;13.00;;;8.50;;
24650;SDS011;12783;48.824;8.662;2023-06-22T03:35:04;12.70;;;8.15;;
24650;SDS011;12783;48.824;8.662;2023-06-22T03:37:32;11.90;;;8.20;;
24650;SDS011;12783;48.824;8.662;2023-06-22T03:39:59;13.30;;;7.97;;
24650;SDS011;12783;48.824;8.662;2023-06-22T03:42:26;13.23;;;8.15;;
24650;SDS011;12783;48.824;8.662;2023-06-22T03:44:53;14.75;;;8.52;;
24650;SDS011;12783;48.824;8.662;2023-06-22T03:47:20;13.52;;;8.93;;
24650;SDS011;12783;48.824;8.662;2023-06-22T03:49:47;11.43;;;8.40;;
24650;SDS011;12783;48.824;8.662;2023-06-22T03:52:14;12.68;;;7.97;;
24650;SDS011;12783;48.824;8.662;2023-06-22T03:54:40;10.57;;;7.18;;
24650;SDS011;12783;48.824;8.662;2023-06-22T03:57:07;14.70;;;8.20;;
24650;SDS011;12783;48.824;8.662;2023-06-22T03:59:34;11.77;;;7.63;;
24650;SDS011;12783;48.824;8.662;2023-06-22T04:02:01;12.20;;;7.97;;
24650;SDS011;12783;48.824;8.662;2023-06-22T04:04:28;15.07;;;7.90;;
24650;SDS011;12783;48.824;8.662;2023-06-22T04:06:55;11.18;;;7.82;;
24650;SDS011;12783;48.824;8.662;2023-06-22T04:09:22;11.73;;;7.93;;
24650;SDS011;12783;48.824;8.662;2023-06-22T04:11:50;11.73;;;7.63;;
24650;SDS011;12783;48.824;8.662;2023-06-22T04:14:16;13.02;;;7.65;;
24650;SDS011;12783;48.824;8.662;2023-06-22T04:16:43;12.23;;;7.15;;
24650;SDS011;12783;48.824;8.662;2023-06-22T04:19:10;11.82;;;7.72;;
24650;SDS011;12783;48.824;8.662;2023-06-22T04:21:42;15.05;;;7.03;;
24650;SDS011;12783;48.824;8.662;2023-06-22T04:24:11;11.65;;;7.80;;
24650;SDS011;12783;48.824;8.662;2023-06-22T04:26:38;13.38;;;7.30;;
24650;SDS011;12783;48.824;8.662;2023-06-22T04:29:07;12.70;;;7.07;;
24650;SDS011;12783;48.824;8.662;2023-06-22T04:31:37;8.82;;;6.97;;
24650;SDS011;12783;48.824;8.662;2023-06-22T04:34:05;11.63;;;7.63;;
24650;SDS011;12783;48.824;8.662;2023-06-22T04:36:34;10.95;;;7.68;;
24650;SDS011;12783;48.824;8.662;2023-06-22T04:39:14;11.70;;;7.70;;
24650;SDS011;12783;48.824;8.662;2023-06-22T04:41:41;12.23;;;7.07;;
24650;SDS011;12783;48.824;8.662;2023-06-22T04:44:09;10.85;;;7.57;;
24650;SDS011;12783;48.824;8.662;2023-06-22T04:46:50;14.48;;;7.95;;
24650;SDS011;12783;48.824;8.662;2023-06-22T04:49:20;11.23;;;7.28;;
24650;SDS011;12783;48.824;8.662;2023-06-22T04:51:48;12.60;;;7.72;;
24650;SDS011;12783;48.824;8.662;2023-06-22T04:54:18;13.13;;;7.63;;
24650;SDS011;12783;48.824;8.662;2023-06-22T04:56:44;10.10;;;6.93;;
24650;SDS011;12783;48.824;8.662;2023-06-22T04:59:12;9.32;;;7.22;;
24650;SDS011;12783;48.824;8.662;2023-06-22T05:01:41;11.77;;;7.13;;
24650;SDS011;12783;48.824;8.662;2023-06-22T05:04:08;16.20;;;7.03;;
24650;SDS011;12783;48.824;8.662;2023-06-22T05:06:36;10.77;;;6.63;;
24650;SDS011;12783;48.824;8.662;2023-06-22T05:09:06;11.50;;;7.07;;
24650;SDS011;12783;48.824;8.662;2023-06-22T05:11:33;13.68;;;7.18;;
24650;SDS011;12783;48.824;8.662;2023-06-22T05:14:00;13.65;;;6.78;;
24650;SDS011;12783;48.824;8.662;2023-06-22T05:16:26;14.00;;;6.70;;
24650;SDS011;12783;48.824;8.662;2023-06-22T05:18:54;11.80;;;6.82;;
24650;SDS011;12783;48.824;8.662;2023-06-22T05:21:22;11.32;;;6.47;;
24650;SDS011;12783;48.824;8.662;2023-06-22T05:23:51;9.18;;;6.57;;
24650;SDS011;12783;48.824;8.662;2023-06-22T05:26:21;12.02;;;6.47;;
24650;SDS011;12783;48.824;8.662;2023-06-22T05:28:48;8.32;;;5.97;;
24650;SDS011;12783;48.824;8.662;2023-06-22T05:31:16;10.35;;;6.65;;
24650;SDS011;12783;48.824;8.662;2023-06-22T05:33:46;9.10;;;5.78;;
24650;SDS011;12783;48.824;8.662;2023-06-22T05:36:15;11.65;;;7.05;;
24650;SDS011;12783;48.824;8.662;2023-06-22T05:38:42;13.73;;;6.75;;
24650;SDS011;12783;48.824;8.662;2023-06-22T05:41:09;10.15;;;6.57;;
24650;SDS011;12783;48.824;8.662;2023-06-22T05:43:35;9.68;;;6.20;;
24650;SDS011;12783;48.824;8.662;2023-06-22T05:46:03;8.23;;;5.90;;
24650;SDS011;12783;48.824;8.662;2023-06-22T05:48:31;10.48;;;6.65;;
24650;SDS011;12783;48.824;8.662;2023-06-22T05:50:58;9.48;;;6.07;;
24650;SDS011;12783;48.824;8.662;2023-06-22T05:53:25;12.45;;;5.75;;
24650;SDS011;12783;48.824;8.662;2023-06-22T05:55:52;10.13;;;6.28;;
24650;SDS011;12783;48.824;8.662;2023-06-22T05:58:19;10.20;;;5.75;;
24650;SDS011;12783;48.824;8.662;2023-06-22T06:00:46;8.68;;;5.65;;
24650;SDS011;12783;48.824;8.662;2023-06-22T06:03:12;9.32;;;5.68;;
24650;SDS011;12783;48.824;8.662;2023-06-22T06:05:43;9.57;;;5.03;;
24650;SDS011;12783;48.824;8.662;2023-06-22T06:08:11;9.35;;;4.70;;
24650;SDS011;12783;48.824;8.662;2023-06-22T06:10:38;10.52;;;5.13;;
24650;SDS011;12783;48.824;8.662;2023-06-22T06:13:05;11.63;;;4.80;;
24650;SDS011;12783;48.824;8.662;2023-06-22T06:15:34;8.00;;;4.47;;
24650;SDS011;12783;48.824;8.662;2023-06-22T06:18:01;9.05;;;3.90;;
24650;SDS011;12783;48.824;8.662;2023-06-22T06:20:31;8.05;;;4.18;;
24650;SDS011;12783;48.824;8.662;2023-06-22T06:22:59;6.53;;;4.50;;
24650;SDS011;12783;48.824;8.662;2023-06-22T06:25:26;8.27;;;4.40;;
24650;SDS011;12783;48.824;8.662;2023-06-22T06:27:53;9.43;;;4.63;;
24650;SDS011;12783;48.824;8.662;2023-06-22T06:30:21;11.43;;;5.15;;
24650;SDS011;12783;48.824;8.662;2023-06-22T06:32:49;9.00;;;4.72;;
24650;SDS011;12783;48.824;8.662;2023-06-22T06:35:17;10.75;;;4.82;;
24650;SDS011;12783;48.824;8.662;2023-06-22T06:37:45;9.48;;;4.43;;
24650;SDS011;12783;48.824;8.662;2023-06-22T06:40:16;7.78;;;4.65;;
24650;SDS011;12783;48.824;8.662;2023-06-22T06:42:45;12.25;;;4.38;;
24650;SDS011;12783;48.824;8.662;2023-06-22T06:45:15;8.05;;;3.72;;
24650;SDS011;12783;48.824;8.662;2023-06-22T06:47:49;7.13;;;4.28;;
24650;SDS011;12783;48.824;8.662;2023-06-22T06:50:18;10.25;;;4.68;;
24650;SDS011;12783;48.824;8.662;2023-06-22T06:52:45;8.45;;;4.50;;
24650;SDS011;12783;48.824;8.662;2023-06-22T06:55:12;8.65;;;4.25;;
24650;SDS011;12783;48.824;8.662;2023-06-22T06:57:40;8.18;;;4.53;;
24650;SDS011;12783;48.824;8.662;2023-06-22T07:00:09;9.18;;;4.60;;
24650;SDS011;12783;48.824;8.662;2023-06-22T07:02:42;6.63;;;4.03;;
24650;SDS011;12783;48.824;8.662;2023-06-22T07:05:11;10.98;;;4.45;;
24650;SDS011;12783;48.824;8.662;2023-06-22T07:07:39;9.00;;;4.38;;
24650;SDS011;12783;48.824;8.662;2023-06-22T07:10:08;11.40;;;4.00;;
24650;SDS011;12783;48.824;8.662;2023-06-22T07:12:35;14.90;;;5.13;;
24650;SDS011;12783;48.824;8.662;2023-06-22T07:15:06;9.98;;;4.57;;
24650;SDS011;12783;48.824;8.662;2023-06-22T07:17:35;9.95;;;4.93;;
24650;SDS011;12783;48.824;8.662;2023-06-22T07:20:03;8.98;;;4.60;;
24650;SDS011;12783;48.824;8.662;2023-06-22T07:22:36;8.40;;;4.20;;
24650;SDS011;12783;48.824;8.662;2023-06-22T07:25:09;10.75;;;4.63;;
24650;SDS011;12783;48.824;8.662;2023-06-22T07:27:44;10.18;;;3.95;;
24650;SDS011;12783;48.824;8.662;2023-06-22T07:30:31;10.32;;;4.20;;
24650;SDS011;12783;48.824;8.662;2023-06-22T07:33:00;9.45;;;4.25;;
24650;SDS011;12783;48.824;8.662;2023-06-22T07:35:30;8.95;;;4.22;;
24650;SDS011;12783;48.824;8.662;2023-06-22T07:37:57;9.73;;;3.95;;
24650;SDS011;12783;48.824;8.662;2023-06-22T07:40:25;7.90;;;4.45;;
24650;SDS011;12783;48.824;8.662;2023-06-22T07:42:53;7.55;;;3.88;;
24650;SDS011;12783;48.824;8.662;2023-06-22T07:45:20;13.20;;;4.68;;
24650;SDS011;12783;48.824;8.662;2023-06-22T07:47:47;10.93;;;4.28;;
24650;SDS011;12783;48.824;8.662;2023-06-22T07:50:14;6.65;;;3.65;;
24650;SDS011;12783;48.824;8.662;2023-06-22T07:52:41;11.85;;;4.35;;
24650;SDS011;12783;48.824;8.662;2023-06-22T07:55:08;9.90;;;4.10;;
24650;SDS011;12783;48.824;8.662;2023-06-22T07:57:35;9.50;;;4.53;;
24650;SDS011;12783;48.824;8.662;2023-06-22T08:00:04;6.70;;;3.90;;
24650;SDS011;12783;48.824;8.662;2023-06-22T08:02:39;9.55;;;4.28;;
24650;SDS011;12783;48.824;8.662;2023-06-22T08:05:09;10.15;;;3.80;;
24650;SDS011;12783;48.824;8.662;2023-06-22T08:07:57;12.25;;;3.70;;
24650;SDS011;12783;48.824;8.662;2023-06-22T08:10:24;14.90;;;4.53;;
24650;SDS011;12783;48.824;8.662;2023-06-22T08:12:51;11.75;;;4.47;;
24650;SDS011;12783;48.824;8.662;2023-06-22T08:15:18;8.25;;;3.65;;
24650;SDS011;12783;48.824;8.662;2023-06-22T08:17:45;9.73;;;4.43;;
24650;SDS011;12783;48.824;8.662;2023-06-22T08:20:13;11.02;;;4.55;;
24650;SDS011;12783;48.824;8.662;2023-06-22T08:22:41;9.88;;;3.90;;
24650;SDS011;12783;48.824;8.662;2023-06-22T08:25:09;8.40;;;4.22;;
24650;SDS011;12783;48.824;8.662;2023-06-22T08:27:36;9.30;;;4.28;;
24650;SDS011;12783;48.824;8.662;2023-06-22T08:30:03;7.55;;;4.32;;
24650;SDS011;12783;48.824;8.662;2023-06-22T08:32:32;11.50;;;4.70;;
24650;SDS011;12783;48.824;8.662;2023-06-22T08:35:00;9.95;;;4.53;;
24650;SDS011;12783;48.824;8.662;2023-06-22T08:37:27;9.80;;;4.30;;
24650;SDS011;12783;48.824;8.662;2023-06-22T08:40:05;16.15;;;4.63;;
24650;SDS011;12783;48.824;8.662;2023-06-22T08:42:35;14.80;;;4.65;;
24650;SDS011;12783;48.824;8.662;2023-06-22T08:45:03;10.48;;;4.70;;
24650;SDS011;12783;48.824;8.662;2023-06-22T08:47:31;10.60;;;4.40;;
24650;SDS011;12783;48.824;8.662;2023-06-22T08:49:58;17.67;;;8.23;;
24650;SDS011;12783;48.824;8.662;2023-06-22T08:52:26;10.77;;;4.45;;
24650;SDS011;12783;48.824;8.662;2023-06-22T08:54:53;10.32;;;4.13;;
24650;SDS011;12783;48.824;8.662;2023-06-22T08:57:20;9.38;;;4.25;;
24650;SDS011;12783;48.824;8.662;2023-06-22T08:59:47;8.90;;;4.50;;
24650;SDS011;12783;48.824;8.662;2023-06-22T09:02:14;11.70;;;4.55;;
24650;SDS011;12783;48.824;8.662;2023-06-22T09:04:41;8.73;;;4.20;;
24650;SDS011;12783;48.824;8.662;2023-06-22T09:07:08;8.73;;;4.03;;
24650;SDS011;12783;48.824;8.662;2023-06-22T09:09:35;10.90;;;4.22;;
24650;SDS011;12783;48.824;8.662;2023-06-22T09:12:03;12.13;;;4.63;;
24650;SDS011;12783;48.824;8.662;2023-06-22T09:14:31;9.27;;;4.00;;
24650;SDS011;12783;48.824;8.662;2023-06-22T09:16:57;12.27;;;4.00;;
24650;SDS011;12783;48.824;8.662;2023-06-22T09:19:24;12.98;;;3.85;;
24650;SDS011;12783;48.824;8.662;2023-06-22T09:21:51;10.65;;;4.18;;
24650;SDS011;12783;48.824;8.662;2023-06-22T09:24:18;13.82;;;4.18;;
24650;SDS011;12783;48.824;8.662;2023-06-22T09:26:45;9.82;;;3.80;;
24650;SDS011;12783;48.824;8.662;2023-06-22T09:29:12;10.30;;;3.55;;
24650;SDS011;12783;48.824;8.662;2023-06-22T09:31:38;9.52;;;3.70;;
24650;SDS011;12783;48.824;8.662;2023-06-22T09:34:05;11.93;;;3.65;;
24650;SDS011;12783;48.824;8.662;2023-06-22T09:36:32;10.15;;;4.60;;
24650;SDS011;12783;48.824;8.662;2023-06-22T09:38:59;12.80;;;4.30;;
24650;SDS011;12783;48.824;8.662;2023-06-22T09:41:32;11.10;;;4.13;;
24650;SDS011;12783;48.824;8.662;2023-06-22T09:43:59;13.63;;;3.78;;
24650;SDS011;12783;48.824;8.662;2023-06-22T09:46:26;13.82;;;4.68;;
24650;SDS011;12783;48.824;8.662;2023-06-22T09:48:53;13.75;;;4.60;;
24650;SDS011;12783;48.824;8.662;2023-06-22T09:51:20;14.52;;;4.50;;
24650;SDS011;12783;48.824;8.662;2023-06-22T09:53:48;14.00;;;4.53;;
24650;SDS011;12783;48.824;8.662;2023-06-22T09:56:15;11.35;;;3.70;;
24650;SDS011;12783;48.824;8.662;2023-06-22T09:58:43;12.55;;;4.65;;
24650;SDS011;12783;48.824;8.662;2023-06-22T10:01:12;12.50;;;4.20;;
24650;SDS011;12783;48.824;8.662;2023-06-22T10:03:42;13.38;;;4.30;;
24650;SDS011;12783;48.824;8.662;2023-06-22T10:06:09;9.80;;;4.25;;
24650;SDS011;12783;48.824;8.662;2023-06-22T10:08:36;9.27;;;4.55;;
24650;SDS011;12783;48.824;8.662;2023-06-22T10:11:03;12.68;;;4.43;;
24650;SDS011;12783;48.824;8.662;2023-06-22T10:13:30;9.95;;;4.60;;
24650;SDS011;12783;48.824;8.662;2023-06-22T10:15:57;10.10;;;4.40;;
24650;SDS011;12783;48.824;8.662;2023-06-22T10:18:24;11.68;;;4.10;;
24650;SDS011;12783;48.824;8.662;2023-06-22T10:20:51;13.18;;;5.00;;
24650;SDS011;12783;48.824;8.662;2023-06-22T10:23:19;8.93;;;4.30;;
24650;SDS011;12783;48.824;8.662;2023-06-22T10:25:46;9.38;;;4.22;;
24650;SDS011;12783;48.824;8.662;2023-06-22T10:28:14;8.32;;;4.32;;
24650;SDS011;12783;48.824;8.662;2023-06-22T10:30:41;9.48;;;4.05;;
24650;SDS011;12783;48.824;8.662;2023-06-22T10:33:09;8.73;;;4.05;;
24650;SDS011;12783;48.824;8.662;2023-06-22T10:35:37;11.20;;;4.25;;
24650;SDS011;12783;48.824;8.662;2023-06-22T10:38:04;10.40;;;4.53;;
24650;SDS011;12783;48.824;8.662;2023-06-22T10:40:32;13.00;;;4.65;;
24650;SDS011;12783;48.824;8.662;2023-06-22T10:42:59;16.17;;;4.10;;
24650;SDS011;12783;48.824;8.662;2023-06-22T10:45:26;10.38;;;4.30;;
24650;SDS011;12783;48.824;8.662;2023-06-22T10:47:55;9.27;;;4.70;;
24650;SDS011;12783;48.824;8.662;2023-06-22T10:50:22;7.88;;;4.13;;
24650;SDS011;12783;48.824;8.662;2023-06-22T10:52:50;17.30;;;4.90;;
24650;SDS011;12783;48.824;8.662;2023-06-22T10:55:18;11.93;;;4.40;;
24650;SDS011;12783;48.824;8.662;2023-06-22T10:57:45;8.60;;;3.83;;
24650;SDS011;12783;48.824;8.662;2023-06-22T11:00:14;12.32;;;4.22;;
24650;SDS011;12783;48.824;8.662;2023-06-22T11:02:42;14.32;;;4.32;;
24650;SDS011;12783;48.824;8.662;2023-06-22T11:05:10;9.32;;;3.70;;
24650;SDS011;12783;48.824;8.662;2023-06-22T11:07:41;11.13;;;4.57;;
24650;SDS011;12783;48.824;8.662;2023-06-22T11:10:10;12.45;;;5.00;;
24650;SDS011;12783;48.824;8.662;2023-06-22T11:12:38;8.25;;;4.28;;
24650;SDS011;12783;48.824;8.662;2023-06-22T11:15:05;10.13;;;4.10;;
24650;SDS011;12783;48.824;8.662;2023-06-22T11:17:33;10.43;;;3.92;;
24650;SDS011;12783;48.824;8.662;2023-06-22T11:20:01;9.95;;;3.80;;
24650;SDS011;12783;48.824;8.662;2023-06-22T11:22:30;8.10;;;3.92;;
24650;SDS011;12783;48.824;8.662;2023-06-22T11:24:59;8.15;;;4.13;;
24650;SDS011;12783;48.824;8.662;2023-06-22T11:27:26;12.40;;;4.32;;
24650;SDS011;12783;48.824;8.662;2023-06-22T11:29:54;7.40;;;3.58;;
24650;SDS011;12783;48.824;8.662;2023-06-22T11:32:21;13.43;;;4.50;;
24650;SDS011;12783;48.824;8.662;2023-06-22T11:34:48;14.07;;;3.90;;
24650;SDS011;12783;48.824;8.662;2023-06-22T11:37:18;9.35;;;4.00;;
24650;SDS011;12783;48.824;8.662;2023-06-22T11:39:44;10.82;;;4.32;;
24650;SDS011;12783;48.824;8.662;2023-06-22T11:42:24;6.90;;;3.90;;
24650;SDS011;12783;48.824;8.662;2023-06-22T11:44:51;9.45;;;3.97;;
24650;SDS011;12783;48.824;8.662;2023-06-22T11:47:18;10.85;;;4.30;;
24650;SDS011;12783;48.824;8.662;2023-06-22T11:49:45;8.07;;;3.85;;
24650;SDS011;12783;48.824;8.662;2023-06-22T11:52:12;16.83;;;4.57;;
24650;SDS011;12783;48.824;8.662;2023-06-22T11:54:39;12.98;;;4.15;;
24650;SDS011;12783;48.824;8.662;2023-06-22T11:57:06;11.77;;;3.97;;
24650;SDS011;12783;48.824;8.662;2023-06-22T11:59:33;8.90;;;3.85;;
24650;SDS011;12783;48.824;8.662;2023-06-22T12:02:00;10.85;;;3.83;;
24650;SDS011;12783;48.824;8.662;2023-06-22T12:04:27;11.07;;;3.70;;
24650;SDS011;12783;48.824;8.662;2023-06-22T12:06:54;9.93;;;3.65;;
24650;SDS011;12783;48.824;8.662;2023-06-22T12:09:21;10.52;;;3.92;;
24650;SDS011;12783;48.824;8.662;2023-06-22T12:11:48;11.75;;;3.95;;
24650;SDS011;12783;48.824;8.662;2023-06-22T12:14:15;11.23;;;3.83;;
24650;SDS011;12783;48.824;8.662;2023-06-22T12:16:42;10.10;;;3.72;;
24650;SDS011;12783;48.824;8.662;2023-06-22T12:19:10;9.77;;;3.65;;
24650;SDS011;12783;48.824;8.662;2023-06-22T12:21:37;19.30;;;3.92;;
24650;SDS011;12783;48.824;8.662;2023-06-22T12:24:06;10.52;;;3.88;;
24650;SDS011;12783;48.824;8.662;2023-06-22T12:26:33;11.38;;;3.50;;
24650;SDS011;12783;48.824;8.662;2023-06-22T12:29:00;10.00;;;4.00;;
24650;SDS011;12783;48.824;8.662;2023-06-22T12:31:27;10.20;;;3.80;;
24650;SDS011;12783;48.824;8.662;2023-06-22T12:33:55;17.55;;;4.00;;
24650;SDS011;12783;48.824;8.662;2023-06-22T12:36:22;10.23;;;4.32;;
24650;SDS011;12783;48.824;8.662;2023-06-22T12:38:49;8.88;;;3.75;;
24650;SDS011;12783;48.824;8.662;2023-06-22T12:41:15;9.73;;;3.97;;
24650;SDS011;12783;48.824;8.662;2023-06-22T12:43:42;12.27;;;4.05;;
24650;SDS011;12783;48.824;8.662;2023-06-22T12:46:09;14.32;;;4.28;;
24650;SDS011;12783;48.824;8.662;2023-06-22T12:48:36;15.05;;;4.22;;
24650;SDS011;12783;48.824;8.662;2023-06-22T12:51:08;7.97;;;3.95;;
24650;SDS011;12783;48.824;8.662;2023-06-22T12:53:36;10.13;;;4.60;;
24650;SDS011;12783;48.824;8.662;2023-06-22T12:56:03;16.92;;;4.90;;
24650;SDS011;12783;48.824;8.662;2023-06-22T12:58:30;17.08;;;4.95;;
24650;SDS011;12783;48.824;8.662;2023-06-22T13:00:57;11.27;;;4.93;;
24650;SDS011;12783;48.824;8.662;2023-06-22T13:03:24;14.35;;;5.45;;
24650;SDS011;12783;48.824;8.662;2023-06-22T13:05:53;11.57;;;5.13;;
24650;SDS011;12783;48.824;8.662;2023-06-22T13:08:21;16.73;;;5.18;;
24650;SDS011;12783;48.824;8.662;2023-06-22T13:11:00;16.75;;;5.68;;
24650;SDS011;12783;48.824;8.662;2023-06-22T13:13:27;9.20;;;5.03;;
24650;SDS011;12783;48.824;8.662;2023-06-22T13:15:54;17.58;;;5.30;;
24650;SDS011;12783;48.824;8.662;2023-06-22T13:18:21;13.98;;;5.38;;
24650;SDS011;12783;48.824;8.662;2023-06-22T13:20:48;12.60;;;4.90;;
24650;SDS011;12783;48.824;8.662;2023-06-22T13:23:15;11.95;;;4.82;;
24650;SDS011;12783;48.824;8.662;2023-06-22T13:25:42;13.93;;;4.70;;
24650;SDS011;12783;48.824;8.662;2023-06-22T13:28:09;11.50;;;4.55;;
24650;SDS011;12783;48.824;8.662;2023-06-22T13:30:53;9.77;;;4.63;;
24650;SDS011;12783;48.824;8.662;2023-06-22T13:33:20;13.25;;;4.38;;
24650;SDS011;12783;48.824;8.662;2023-06-22T13:35:47;15.77;;;3.83;;
24650;SDS011;12783;48.824;8.662;2023-06-22T13:38:14;12.80;;;4.53;;
24650;SDS011;12783;48.824;8.662;2023-06-22T13:40:40;7.47;;;3.70;;
24650;SDS011;12783;48.824;8.662;2023-06-22T13:43:08;12.60;;;3.47;;
24650;SDS011;12783;48.824;8.662;2023-06-22T13:45:35;11.57;;;3.53;;
24650;SDS011;12783;48.824;8.662;2023-06-22T13:48:02;9.75;;;3.40;;
24650;SDS011;12783;48.824;8.662;2023-06-22T13:50:29;14.27;;;3.03;;
24650;SDS011;12783;48.824;8.662;2023-06-22T13:52:56;11.05;;;2.90;;
24650;SDS011;12783;48.824;8.662;2023-06-22T13:55:23;12.98;;;2.83;;
24650;SDS011;12783;48.824;8.662;2023-06-22T13:57:50;8.70;;;2.83;;
24650;SDS011;12783;48.824;8.662;2023-06-22T14:00:17;15.57;;;2.90;;
24650;SDS011;12783;48.824;8.662;2023-06-22T14:02:45;13.48;;;3.13;;
24650;SDS011;12783;48.824;8.662;2023-06-22T14:05:12;10.70;;;2.65;;
24650;SDS011;12783;48.824;8.662;2023-06-22T14:07:39;12.88;;;3.00;;
24650;SDS011;12783;48.824;8.662;2023-06-22T14:10:06;11.93;;;3.05;;
24650;SDS011;12783;48.824;8.662;2023-06-22T14:12:34;15.05;;;2.88;;
24650;SDS011;12783;48.824;8.662;2023-06-22T14:15:01;21.17;;;3.67;;
24650;SDS011;12783;48.824;8.662;2023-06-22T14:17:28;16.02;;;3.60;;
24650;SDS011;12783;48.824;8.662;2023-06-22T14:19:55;10.18;;;3.22;;
24650;SDS011;12783;48.824;8.662;2023-06-22T14:22:22;17.13;;;3.13;;
24650;SDS011;12783;48.824;8.662;2023-06-22T14:24:49;12.07;;;2.97;;
24650;SDS011;12783;48.824;8.662;2023-06-22T14:27:16;15.13;;;2.85;;
24650;SDS011;12783;48.824;8.662;2023-06-22T14:29:43;11.85;;;3.17;;
24650;SDS011;12783;48.824;8.662;2023-06-22T14:32:10;12.82;;;3.20;;
24650;SDS011;12783;48.824;8.662;2023-06-22T14:34:37;14.38;;;2.85;;
24650;SDS011;12783;48.824;8.662;2023-06-22T14:37:06;14.27;;;3.15;;
24650;SDS011;12783;48.824;8.662;2023-06-22T14:39:36;16.85;;;3.65;;
24650;SDS011;12783;48.824;8.662;2023-06-22T14:42:03;13.00;;;3.20;;
24650;SDS011;12783;48.824;8.662;2023-06-22T14:44:30;11.18;;;2.78;;
24650;SDS011;12783;48.824;8.662;2023-06-22T14:46:57;17.55;;;3.67;;
24650;SDS011;12783;48.824;8.662;2023-06-22T14:49:24;13.80;;;3.53;;